CheckWX is a tool to help pilots better visualize weather data.  It is not intended as a substitute for an official pre-flight weather briefing.

17:58:03 UTC

EGQL TAF
RAF Leuchars Airport
St. Andrews, United Kingdom
TAF COR EGQL 251658Z 2518/2603 06005KT 8000 HZ FEW048 TEMPO 2518/2603 5000 BR PROB30 TEMPO 2522/2603 3000 BR

Aug-25@
18:00 UTC

Aug-25 @ 18:00 UTC

Aug-26@
03:00 UTC

Aug-26 @ 03:00 UTC

TAF COR EGQL 251658Z 2518/2603 06005KT 8000 HZ FEW048
Wind
  • 060° at 5 KTS
Conditions
Haze
Cloud Levels
  • Few at 4,800' AGL

Aug-25@
18:00 UTC

Aug-25 @ 18:00 UTC

Aug-26@
03:00 UTC

Aug-26 @ 03:00 UTC

TEMPO 2518/2603 5000 BR

Temporary

Temporary Changes expected for less than half the time period

Conditions
Mist

Aug-25@
22:00 UTC

Aug-25 @ 22:00 UTC

Aug-26@
03:00 UTC

Aug-26 @ 03:00 UTC

PROB30 TEMPO 2522/2603 3000 BR

Temporary - 30% Likelihood

Temporary - 30% Likelihood during this time.

Conditions
Mist